This is the latest recevied weather packets stored in our database for station/object E20ZNR-1. If no packets are shown the sender has not sent any weather packets the latest 10 day(s).
| Time | Temp. | Humidity | Pressure | Rain* | Wind** | Luminosity | Snow |
|---|---|---|---|---|---|---|---|
| 1777965172 | 35.56° C | 55% | 1004 hPa | - | - | 0 W/m² | - |
| 1777964247 | 36.67° C | 52% | 1005 hPa | - | - | 0 W/m² | - |
| 1777963322 | 35.56° C | 53% | 1005 hPa | - | - | 0 W/m² | - |
| 1777962398 | 35.56° C | 58% | 1006 hPa | - | - | 0 W/m² | - |
| 1777961473 | 36.11° C | 56% | 1006 hPa | - | - | 0 W/m² | - |
| 1777960548 | 35.56° C | 51% | 1006 hPa | - | - | 0 W/m² | - |
| 1777959623 | 35.56° C | 55% | 1007 hPa | - | - | 0 W/m² | - |
| 1777958698 | 36.67° C | 56% | 1007 hPa | - | - | 0 W/m² | - |
| 1777957773 | 35.56° C | 56% | 1007 hPa | - | - | 0 W/m² | - |
| 1777956848 | 35° C | 58% | 1008 hPa | - | - | 0 W/m² | - |
| 1777955923 | 35.56° C | 61% | 1008 hPa | - | - | 0 W/m² | - |
| 1777954998 | 34.44° C | 68% | 1008 hPa | - | - | 0 W/m² | - |
| 1777954073 | 33.33° C | 72% | 1008 hPa | - | - | 0 W/m² | - |
| 1777953148 | 36.11° C | 61% | 1008 hPa | - | - | 0 W/m² | - |
| 1777952223 | 34.44° C | 69% | 1008 hPa | - | - | 0 W/m² | - |
| 1777951298 | 34.44° C | 66% | 1008 hPa | - | - | 0 W/m² | - |
| 1777950373 | 35.56° C | 69% | 1009 hPa | - | - | 0 W/m² | - |
| 1777949447 | 33.89° C | 69% | 1009 hPa | - | - | 0 W/m² | - |
| 1777948523 | - | - | - | - | - | - | - |
| 1777948522 | 35° C | 67% | 1009 hPa | - | - | 0 W/m² | - |
| 1777947597 | 33.89° C | 70% | 1008 hPa | - | - | 0 W/m² | - |
| 1777946671 | 32.22° C | 79% | 1008 hPa | - | - | 0 W/m² | - |
| 1777945746 | 38.89° C | 53% | 1009 hPa | - | - | 0 W/m² | - |
| 1777944821 | 35° C | 68% | 1008 hPa | - | - | 0 W/m² | - |
| 1777943896 | 32.78° C | 75% | 1008 hPa | - | - | 0 W/m² | - |
* Rain since midnight (hover to see other rain measurements)
** Current wind speed in m/s (hover to see current wind gust speed)